sensor_id;sensor_type;location;lat;lon;timestamp;pressure;altitude;pressure_sealevel;temperature;humidity
77583;BME280;66726;52.388;9.986;2023-07-24T00:00:37;99893.56;;;19.09;79.24
77583;BME280;66726;52.388;9.986;2023-07-24T00:03:10;99888.13;;;19.09;79.51
77583;BME280;66726;52.388;9.986;2023-07-24T00:05:42;99898.97;;;19.09;79.61
77583;BME280;66726;52.388;9.986;2023-07-24T00:08:14;99900.50;;;19.05;79.92
77583;BME280;66726;52.388;9.986;2023-07-24T00:10:46;99895.06;;;19.05;80.29
77583;BME280;66726;52.388;9.986;2023-07-24T00:13:19;99890.72;;;19.04;79.24
77583;BME280;66726;52.388;9.986;2023-07-24T00:15:52;99898.25;;;19.02;80.16
77583;BME280;66726;52.388;9.986;2023-07-24T00:18:24;99896.16;;;19.04;79.92
77583;BME280;66726;52.388;9.986;2023-07-24T00:20:56;99887.88;;;18.99;79.73
77583;BME280;66726;52.388;9.986;2023-07-24T00:23:28;99895.44;;;18.97;80.63
77583;BME280;66726;52.388;9.986;2023-07-24T00:26:00;99890.03;;;18.97;80.71
77583;BME280;66726;52.388;9.986;2023-07-24T00:28:34;99875.84;;;18.95;80.71
77583;BME280;66726;52.388;9.986;2023-07-24T00:31:06;99874.22;;;18.94;80.43
77583;BME280;66726;52.388;9.986;2023-07-24T00:33:38;99875.84;;;18.95;80.26
77583;BME280;66726;52.388;9.986;2023-07-24T00:36:10;99879.66;;;18.94;80.30
77583;BME280;66726;52.388;9.986;2023-07-24T00:38:42;99879.66;;;18.94;80.57
77583;BME280;66726;52.388;9.986;2023-07-24T00:41:14;99885.06;;;18.94;80.01
77583;BME280;66726;52.388;9.986;2023-07-24T00:43:47;99869.59;;;18.94;80.20
77583;BME280;66726;52.388;9.986;2023-07-24T00:46:19;99873.38;;;18.93;80.10
77583;BME280;66726;52.388;9.986;2023-07-24T00:48:51;99880.69;;;18.93;79.77
77583;BME280;66726;52.388;9.986;2023-07-24T00:51:27;99872.78;;;18.91;79.65
77583;BME280;66726;52.388;9.986;2023-07-24T00:54:02;99863.03;;;18.90;79.94
77583;BME280;66726;52.388;9.986;2023-07-24T00:56:35;99864.28;;;18.88;80.08
77583;BME280;66726;52.388;9.986;2023-07-24T00:59:08;99873.03;;;18.90;79.86
77583;BME280;66726;52.388;9.986;2023-07-24T01:01:41;99870.53;;;18.88;79.96
77583;BME280;66726;52.388;9.986;2023-07-24T01:04:14;99864.28;;;18.88;79.70
77583;BME280;66726;52.388;9.986;2023-07-24T01:06:46;99883.06;;;18.89;79.73
77583;BME280;66726;52.388;9.986;2023-07-24T01:09:18;99875.75;;;18.90;79.80
77583;BME280;66726;52.388;9.986;2023-07-24T01:11:54;99875.75;;;18.90;79.83
77583;BME280;66726;52.388;9.986;2023-07-24T01:14:36;99873.88;;;18.90;79.78
77583;BME280;66726;52.388;9.986;2023-07-24T01:17:15;99873.03;;;18.90;79.73
77583;BME280;66726;52.388;9.986;2023-07-24T01:19:52;99857.59;;;18.90;79.69
77583;BME280;66726;52.388;9.986;2023-07-24T01:22:44;99870.31;;;18.90;79.59
77583;BME280;66726;52.388;9.986;2023-07-24T01:25:31;99868.66;;;18.89;79.53
77583;BME280;66726;52.388;9.986;2023-07-24T01:28:10;99862.19;;;18.90;78.84
77583;BME280;66726;52.388;9.986;2023-07-24T01:30:42;99861.34;;;18.89;79.30
77583;BME280;66726;52.388;9.986;2023-07-24T01:33:14;99860.53;;;18.89;79.22
77583;BME280;66726;52.388;9.986;2023-07-24T01:35:46;99865.47;;;18.92;78.80
77583;BME280;66726;52.388;9.986;2023-07-24T01:38:22;99854.63;;;18.92;79.11
77583;BME280;66726;52.388;9.986;2023-07-24T01:40:56;99858.16;;;18.92;79.03
77583;BME280;66726;52.388;9.986;2023-07-24T01:43:31;99859.00;;;18.93;78.79
77583;BME280;66726;52.388;9.986;2023-07-24T01:46:03;99852.16;;;18.90;78.36
77583;BME280;66726;52.388;9.986;2023-07-24T01:48:35;99850.25;;;18.91;78.98
77583;BME280;66726;52.388;9.986;2023-07-24T01:51:07;99848.38;;;18.91;78.78
77583;BME280;66726;52.388;9.986;2023-07-24T01:53:39;99847.53;;;18.91;78.68
77583;BME280;66726;52.388;9.986;2023-07-24T01:56:11;99849.19;;;18.92;78.67
77583;BME280;66726;52.388;9.986;2023-07-24T01:58:44;99846.97;;;18.89;78.71
77583;BME280;66726;52.388;9.986;2023-07-24T02:01:16;99846.75;;;18.90;78.44
77583;BME280;66726;52.388;9.986;2023-07-24T02:03:48;99845.09;;;18.89;78.60
77583;BME280;66726;52.388;9.986;2023-07-24T02:06:20;99837.78;;;18.90;78.29
77583;BME280;66726;52.388;9.986;2023-07-24T02:08:52;99848.38;;;18.91;78.44
77583;BME280;66726;52.388;9.986;2023-07-24T02:11:24;99850.03;;;18.92;77.75
77583;BME280;66726;52.388;9.986;2023-07-24T02:13:57;99849.81;;;18.94;78.01
77583;BME280;66726;52.388;9.986;2023-07-24T02:16:29;99850.88;;;18.93;77.61
77583;BME280;66726;52.388;9.986;2023-07-24T02:19:02;99840.00;;;18.93;77.63
77583;BME280;66726;52.388;9.986;2023-07-24T02:21:34;99841.91;;;18.92;77.59
77583;BME280;66726;52.388;9.986;2023-07-24T02:24:06;99838.34;;;18.92;77.67
77583;BME280;66726;52.388;9.986;2023-07-24T02:26:37;99841.91;;;18.92;77.77
77583;BME280;66726;52.388;9.986;2023-07-24T02:29:11;99832.94;;;18.92;77.59
77583;BME280;66726;52.388;9.986;2023-07-24T02:31:43;99821.25;;;18.91;77.68
77583;BME280;66726;52.388;9.986;2023-07-24T02:34:15;99821.25;;;18.91;77.51
77583;BME280;66726;52.388;9.986;2023-07-24T02:36:46;99819.84;;;18.89;77.69
77583;BME280;66726;52.388;9.986;2023-07-24T02:39:18;99820.06;;;18.87;77.91
77583;BME280;66726;52.388;9.986;2023-07-24T02:41:51;99814.63;;;18.87;77.84
77583;BME280;66726;52.388;9.986;2023-07-24T02:44:24;99819.72;;;18.84;77.88
77583;BME280;66726;52.388;9.986;2023-07-24T02:46:56;99832.69;;;18.82;78.01
77583;BME280;66726;52.388;9.986;2023-07-24T02:49:28;99834.84;;;18.80;78.33
77583;BME280;66726;52.388;9.986;2023-07-24T02:52:00;99834.84;;;18.80;77.96
77583;BME280;66726;52.388;9.986;2023-07-24T02:54:32;99830.47;;;18.79;78.24
77583;BME280;66726;52.388;9.986;2023-07-24T02:57:04;99831.03;;;18.81;78.29
77583;BME280;66726;52.388;9.986;2023-07-24T02:59:37;99839.16;;;18.81;78.49
77583;BME280;66726;52.388;9.986;2023-07-24T03:02:09;99832.69;;;18.82;78.45
77583;BME280;66726;52.388;9.986;2023-07-24T03:04:41;99827.75;;;18.79;78.34
77583;BME280;66726;52.388;9.986;2023-07-24T03:07:13;99829.41;;;18.80;78.60
77583;BME280;66726;52.388;9.986;2023-07-24T03:09:45;99826.69;;;18.80;78.41
77583;BME280;66726;52.388;9.986;2023-07-24T03:12:16;99825.25;;;18.77;78.60
77583;BME280;66726;52.388;9.986;2023-07-24T03:14:50;99819.03;;;18.77;78.55
77583;BME280;66726;52.388;9.986;2023-07-24T03:17:23;99819.03;;;18.77;78.81
77583;BME280;66726;52.388;9.986;2023-07-24T03:19:56;99826.09;;;18.78;78.77
77583;BME280;66726;52.388;9.986;2023-07-24T03:22:28;99824.47;;;18.77;78.60
77583;BME280;66726;52.388;9.986;2023-07-24T03:25:00;99829.88;;;18.77;78.72
77583;BME280;66726;52.388;9.986;2023-07-24T03:27:32;99830.94;;;18.76;78.61
77583;BME280;66726;52.388;9.986;2023-07-24T03:30:06;99829.88;;;18.77;78.73
77583;BME280;66726;52.388;9.986;2023-07-24T03:32:40;99824.47;;;18.77;78.36
77583;BME280;66726;52.388;9.986;2023-07-24T03:35:12;99834.47;;;18.76;78.50
77583;BME280;66726;52.388;9.986;2023-07-24T03:37:44;99822.78;;;18.76;78.28
77583;BME280;66726;52.388;9.986;2023-07-24T03:40:16;99827.16;;;18.77;78.16
77583;BME280;66726;52.388;9.986;2023-07-24T03:42:48;99811.94;;;18.76;78.30
77583;BME280;66726;52.388;9.986;2023-07-24T03:45:21;99811.13;;;18.75;78.09
77583;BME280;66726;52.388;9.986;2023-07-24T03:47:53;99807.00;;;18.72;78.08
77583;BME280;66726;52.388;9.986;2023-07-24T03:50:25;99802.63;;;18.71;78.04
77583;BME280;66726;52.388;9.986;2023-07-24T03:52:57;99797.78;;;18.73;78.02
77583;BME280;66726;52.388;9.986;2023-07-24T03:55:28;99798.72;;;18.67;78.45
77583;BME280;66726;52.388;9.986;2023-07-24T03:58:00;99804.41;;;18.66;78.22
77583;BME280;66726;52.388;9.986;2023-07-24T04:00:33;99786.72;;;18.63;78.50
77583;BME280;66726;52.388;9.986;2023-07-24T04:03:05;99792.97;;;18.64;78.29
77583;BME280;66726;52.388;9.986;2023-07-24T04:05:38;99804.16;;;18.67;77.96
77583;BME280;66726;52.388;9.986;2023-07-24T04:08:11;99798.25;;;18.70;77.64
77583;BME280;66726;52.388;9.986;2023-07-24T04:10:42;99799.34;;;18.69;78.07
77583;BME280;66726;52.388;9.986;2023-07-24T04:13:14;99802.06;;;18.69;78.18
77583;BME280;66726;52.388;9.986;2023-07-24T04:15:47;99795.81;;;18.69;77.91
77583;BME280;66726;52.388;9.986;2023-07-24T04:18:19;99796.63;;;18.69;77.90
77583;BME280;66726;52.388;9.986;2023-07-24T04:20:51;99794.72;;;18.70;77.83
77583;BME280;66726;52.388;9.986;2023-07-24T04:23:23;99787.41;;;18.70;77.79
77583;BME280;66726;52.388;9.986;2023-07-24T04:25:55;99786.38;;;18.71;77.64
77583;BME280;66726;52.388;9.986;2023-07-24T04:28:27;99779.88;;;18.72;77.58
77583;BME280;66726;52.388;9.986;2023-07-24T04:31:03;99789.06;;;18.71;77.65
77583;BME280;66726;52.388;9.986;2023-07-24T04:33:35;99785.31;;;18.72;77.27
77583;BME280;66726;52.388;9.986;2023-07-24T04:36:07;99788.25;;;18.71;77.25
77583;BME280;66726;52.388;9.986;2023-07-24T04:38:39;99782.59;;;18.72;77.95
77583;BME280;66726;52.388;9.986;2023-07-24T04:41:11;99781.50;;;18.73;77.66
77583;BME280;66726;52.388;9.986;2023-07-24T04:43:43;99776.09;;;18.73;78.01
77583;BME280;66726;52.388;9.986;2023-07-24T04:46:16;99777.75;;;18.74;77.74
77583;BME280;66726;52.388;9.986;2023-07-24T04:48:48;99777.41;;;18.71;78.02
77583;BME280;66726;52.388;9.986;2023-07-24T04:51:20;99782.34;;;18.74;78.35
77583;BME280;66726;52.388;9.986;2023-07-24T04:53:53;99777.75;;;18.74;77.83
77583;BME280;66726;52.388;9.986;2023-07-24T04:56:24;99768.78;;;18.74;77.95
77583;BME280;66726;52.388;9.986;2023-07-24T04:58:56;99772.31;;;18.74;77.57
77583;BME280;66726;52.388;9.986;2023-07-24T05:01:30;99756.88;;;18.75;78.00
77583;BME280;66726;52.388;9.986;2023-07-24T05:04:02;99753.94;;;18.77;77.47
77583;BME280;66726;52.388;9.986;2023-07-24T05:06:34;99747.69;;;18.76;78.13
77583;BME280;66726;52.388;9.986;2023-07-24T05:09:07;99747.44;;;18.78;77.82
77583;BME280;66726;52.388;9.986;2023-07-24T05:11:39;99734.72;;;18.78;77.59
77583;BME280;66726;52.388;9.986;2023-07-24T05:14:12;99731.78;;;18.80;78.04
77583;BME280;66726;52.388;9.986;2023-07-24T05:16:45;99724.69;;;18.79;77.94
77583;BME280;66726;52.388;9.986;2023-07-24T05:19:17;99722.00;;;18.79;78.06
77583;BME280;66726;52.388;9.986;2023-07-24T05:21:49;99720.94;;;18.80;78.02
77583;BME280;66726;52.388;9.986;2023-07-24T05:24:21;99729.41;;;18.83;78.00
77583;BME280;66726;52.388;9.986;2023-07-24T05:26:53;99724.78;;;18.84;78.02
77583;BME280;66726;52.388;9.986;2023-07-24T05:29:25;99718.31;;;18.85;77.98
77583;BME280;66726;52.388;9.986;2023-07-24T05:31:58;99717.25;;;18.86;78.07
77583;BME280;66726;52.388;9.986;2023-07-24T05:34:30;99711.34;;;18.89;78.32
77583;BME280;66726;52.388;9.986;2023-07-24T05:37:02;99701.06;;;18.91;78.08
77583;BME280;66726;52.388;9.986;2023-07-24T05:39:34;99721.84;;;18.97;78.36
77583;BME280;66726;52.388;9.986;2023-07-24T05:42:07;99720.88;;;19.03;77.97
77583;BME280;66726;52.388;9.986;2023-07-24T05:44:39;99723.69;;;19.08;77.58
77583;BME280;66726;52.388;9.986;2023-07-24T05:47:12;99731.38;;;19.11;77.28
77583;BME280;66726;52.388;9.986;2023-07-24T05:49:44;99731.09;;;19.12;77.06
77583;BME280;66726;52.388;9.986;2023-07-24T05:52:16;99720.84;;;19.14;76.90
77583;BME280;66726;52.388;9.986;2023-07-24T05:54:48;99726.03;;;19.16;77.18
77583;BME280;66726;52.388;9.986;2023-07-24T05:57:20;99726.84;;;19.16;77.12
77583;BME280;66726;52.388;9.986;2023-07-24T05:59:52;99708.09;;;19.15;77.18
77583;BME280;66726;52.388;9.986;2023-07-24T06:02:25;99696.19;;;19.16;77.36
77583;BME280;66726;52.388;9.986;2023-07-24T06:04:57;99690.97;;;19.14;78.11
77583;BME280;66726;52.388;9.986;2023-07-24T06:07:29;99709.66;;;19.11;79.11
77583;BME280;66726;52.388;9.986;2023-07-24T06:10:01;99711.56;;;18.99;80.02
77583;BME280;66726;52.388;9.986;2023-07-24T06:12:33;99709.44;;;19.01;81.52
77583;BME280;66726;52.388;9.986;2023-07-24T06:15:04;99712.13;;;19.01;82.09
77583;BME280;66726;52.388;9.986;2023-07-24T06:17:38;99706.97;;;18.99;82.60
77583;BME280;66726;52.388;9.986;2023-07-24T06:20:10;99711.56;;;18.99;82.35
77583;BME280;66726;52.388;9.986;2023-07-24T06:22:43;99699.66;;;19.00;83.09
77583;BME280;66726;52.388;9.986;2023-07-24T06:25:14;99709.69;;;18.99;83.19
77583;BME280;66726;52.388;9.986;2023-07-24T06:27:46;99697.53;;;19.02;83.54
77583;BME280;66726;52.388;9.986;2023-07-24T06:30:18;99698.69;;;19.06;83.82
77583;BME280;66726;52.388;9.986;2023-07-24T06:32:51;99685.69;;;19.08;84.31
77583;BME280;66726;52.388;9.986;2023-07-24T06:35:23;99676.50;;;19.09;83.42
77583;BME280;66726;52.388;9.986;2023-07-24T06:37:55;99668.72;;;19.12;84.06
77583;BME280;66726;52.388;9.986;2023-07-24T06:40:27;99666.34;;;19.16;83.81
77583;BME280;66726;52.388;9.986;2023-07-24T06:42:59;99657.38;;;19.15;82.02
77583;BME280;66726;52.388;9.986;2023-07-24T06:45:31;99653.34;;;19.18;82.47
77583;BME280;66726;52.388;9.986;2023-07-24T06:48:04;99652.06;;;19.20;82.69
77583;BME280;66726;52.388;9.986;2023-07-24T06:50:36;99647.69;;;19.19;82.61
77583;BME280;66726;52.388;9.986;2023-07-24T06:53:08;99641.44;;;19.19;82.91
77583;BME280;66726;52.388;9.986;2023-07-24T06:55:40;99648.50;;;19.20;82.43
77583;BME280;66726;52.388;9.986;2023-07-24T06:58:12;99642.59;;;19.23;82.46
77583;BME280;66726;52.388;9.986;2023-07-24T07:00:44;99645.09;;;19.24;82.81
77583;BME280;66726;52.388;9.986;2023-07-24T07:03:17;99657.00;;;19.23;82.48
77583;BME280;66726;52.388;9.986;2023-07-24T07:05:49;99659.44;;;19.25;82.20
77583;BME280;66726;52.388;9.986;2023-07-24T07:08:21;99668.69;;;19.24;81.39
77583;BME280;66726;52.388;9.986;2023-07-24T07:10:59;99664.88;;;19.25;82.88
77583;BME280;66726;52.388;9.986;2023-07-24T07:13:31;99657.81;;;19.24;82.10
77583;BME280;66726;52.388;9.986;2023-07-24T07:16:03;99654.03;;;19.25;81.70
77583;BME280;66726;52.388;9.986;2023-07-24T07:18:36;99659.44;;;19.25;81.15
77583;BME280;66726;52.388;9.986;2023-07-24T07:21:08;99643.50;;;19.29;81.82
77583;BME280;66726;52.388;9.986;2023-07-24T07:23:40;99633.47;;;19.29;81.39
77583;BME280;66726;52.388;9.986;2023-07-24T07:26:15;99636.53;;;19.33;80.39
77583;BME280;66726;52.388;9.986;2023-07-24T07:28:47;99639.56;;;19.36;80.17
77583;BME280;66726;52.388;9.986;2023-07-24T07:31:19;99647.22;;;19.39;79.28
77583;BME280;66726;52.388;9.986;2023-07-24T07:33:52;99644.88;;;19.43;78.66
77583;BME280;66726;52.388;9.986;2023-07-24T07:36:24;99646.28;;;19.45;79.11
77583;BME280;66726;52.388;9.986;2023-07-24T07:38:56;99647.69;;;19.48;78.99
77583;BME280;66726;52.388;9.986;2023-07-24T07:41:27;99651.81;;;19.50;79.32
77583;BME280;66726;52.388;9.986;2023-07-24T07:43:59;99644.16;;;19.47;81.17
77583;BME280;66726;52.388;9.986;2023-07-24T07:46:31;99651.41;;;19.42;82.47
77583;BME280;66726;52.388;9.986;2023-07-24T07:49:04;99651.03;;;19.38;82.76
77583;BME280;66726;52.388;9.986;2023-07-24T07:51:36;99646.31;;;19.34;83.03
77583;BME280;66726;52.388;9.986;2023-07-24T07:54:08;99654.69;;;19.32;84.37
77583;BME280;66726;52.388;9.986;2023-07-24T07:56:40;99653.06;;;19.31;84.87
77583;BME280;66726;52.388;9.986;2023-07-24T07:59:12;99658.50;;;19.31;85.96
77583;BME280;66726;52.388;9.986;2023-07-24T08:01:44;99664.97;;;19.30;86.77
77583;BME280;66726;52.388;9.986;2023-07-24T08:04:18;99654.84;;;19.25;87.02
77583;BME280;66726;52.388;9.986;2023-07-24T08:06:50;99667.41;;;19.15;88.27
77583;BME280;66726;52.388;9.986;2023-07-24T08:09:22;99662.44;;;19.12;89.05
77583;BME280;66726;52.388;9.986;2023-07-24T08:11:54;99668.97;;;19.11;88.55
77583;BME280;66726;52.388;9.986;2023-07-24T08:14:26;99662.84;;;19.04;89.55
77583;BME280;66726;52.388;9.986;2023-07-24T08:16:58;99658.38;;;18.98;90.32
77583;BME280;66726;52.388;9.986;2023-07-24T08:19:33;99645.16;;;19.01;90.39
77583;BME280;66726;52.388;9.986;2023-07-24T08:22:06;99654.59;;;18.99;90.05
77583;BME280;66726;52.388;9.986;2023-07-24T08:24:37;99669.22;;;18.98;90.18
77583;BME280;66726;52.388;9.986;2023-07-24T08:27:09;99671.53;;;18.78;90.79
77583;BME280;66726;52.388;9.986;2023-07-24T08:29:41;99680.63;;;18.71;90.60
77583;BME280;66726;52.388;9.986;2023-07-24T08:32:13;99684.63;;;18.69;90.64
77583;BME280;66726;52.388;9.986;2023-07-24T08:34:46;99688.19;;;18.69;91.15
77583;BME280;66726;52.388;9.986;2023-07-24T08:37:18;99680.03;;;18.69;91.69
77583;BME280;66726;52.388;9.986;2023-07-24T08:39:52;99673.53;;;18.70;91.61
77583;BME280;66726;52.388;9.986;2023-07-24T08:42:25;99677.78;;;18.66;92.92
77583;BME280;66726;52.388;9.986;2023-07-24T08:44:56;99678.03;;;18.77;93.10
77583;BME280;66726;52.388;9.986;2023-07-24T08:47:29;99676.09;;;18.89;94.20
77583;BME280;66726;52.388;9.986;2023-07-24T08:50:03;99670.78;;;18.94;95.26
77583;BME280;66726;52.388;9.986;2023-07-24T08:52:36;99672.19;;;18.96;94.14
77583;BME280;66726;52.388;9.986;2023-07-24T08:55:10;99679.13;;;19.04;94.45
77583;BME280;66726;52.388;9.986;2023-07-24T08:57:42;99678.38;;;19.08;94.35
77583;BME280;66726;52.388;9.986;2023-07-24T09:00:18;99681.94;;;19.09;94.39
77583;BME280;66726;52.388;9.986;2023-07-24T09:02:50;99682.41;;;19.06;93.75
77583;BME280;66726;52.388;9.986;2023-07-24T09:05:24;99671.22;;;19.02;92.30
77583;BME280;66726;52.388;9.986;2023-07-24T09:07:56;99670.03;;;19.10;93.13
77583;BME280;66726;52.388;9.986;2023-07-24T09:10:28;99663.63;;;19.16;92.81
77583;BME280;66726;52.388;9.986;2023-07-24T09:13:00;99664.38;;;19.28;94.00
77583;BME280;66726;52.388;9.986;2023-07-24T09:15:42;99654.69;;;19.32;93.05
77583;BME280;66726;52.388;9.986;2023-07-24T09:18:14;99658.25;;;19.33;91.36
77583;BME280;66726;52.388;9.986;2023-07-24T09:20:48;99652.47;;;19.41;91.42
77583;BME280;66726;52.388;9.986;2023-07-24T09:23:29;99669.16;;;19.49;89.34
77583;BME280;66726;52.388;9.986;2023-07-24T09:26:07;99664.06;;;19.53;89.35
77583;BME280;66726;52.388;9.986;2023-07-24T09:28:40;99674.69;;;19.54;88.50
77583;BME280;66726;52.388;9.986;2023-07-24T09:31:12;99670.09;;;19.55;87.94
77583;BME280;66726;52.388;9.986;2023-07-24T09:33:44;99666.38;;;19.61;87.26
77583;BME280;66726;52.388;9.986;2023-07-24T09:36:18;99650.28;;;19.71;86.87
77583;BME280;66726;52.388;9.986;2023-07-24T09:38:59;99652.44;;;19.86;87.78
77583;BME280;66726;52.388;9.986;2023-07-24T09:41:32;99659.09;;;19.95;87.01
77583;BME280;66726;52.388;9.986;2023-07-24T09:44:04;99654.31;;;20.02;84.51
77583;BME280;66726;52.388;9.986;2023-07-24T09:46:36;99655.53;;;20.11;83.63
77583;BME280;66726;52.388;9.986;2023-07-24T09:49:18;99672.75;;;20.16;84.33
77583;BME280;66726;52.388;9.986;2023-07-24T09:51:56;99659.56;;;20.25;84.85
77583;BME280;66726;52.388;9.986;2023-07-24T09:54:35;99661.63;;;20.35;84.75
77583;BME280;66726;52.388;9.986;2023-07-24T09:57:13;99659.72;;;20.35;83.25
77583;BME280;66726;52.388;9.986;2023-07-24T09:59:53;99668.13;;;20.50;81.35
77583;BME280;66726;52.388;9.986;2023-07-24T10:02:27;99653.09;;;20.64;79.54
77583;BME280;66726;52.388;9.986;2023-07-24T10:04:59;99654.22;;;20.68;80.10
77583;BME280;66726;52.388;9.986;2023-07-24T10:07:33;99661.94;;;20.77;78.46
77583;BME280;66726;52.388;9.986;2023-07-24T10:10:07;99648.28;;;20.71;77.67
77583;BME280;66726;52.388;9.986;2023-07-24T10:12:40;99654.53;;;20.72;78.86
77583;BME280;66726;52.388;9.986;2023-07-24T10:15:13;99635.38;;;20.84;79.23
77583;BME280;66726;52.388;9.986;2023-07-24T10:17:46;99639.38;;;21.03;79.50
77583;BME280;66726;52.388;9.986;2023-07-24T10:20:20;99652.19;;;21.24;74.36
77583;BME280;66726;52.388;9.986;2023-07-24T10:22:53;99640.88;;;21.37;74.20
77583;BME280;66726;52.388;9.986;2023-07-24T10:25:34;99639.16;;;21.26;71.48
77583;BME280;66726;52.388;9.986;2023-07-24T10:28:09;99637.69;;;21.18;72.32
77583;BME280;66726;52.388;9.986;2023-07-24T10:30:43;99634.91;;;21.13;74.26
77583;BME280;66726;52.388;9.986;2023-07-24T10:33:21;99630.16;;;21.04;75.68
77583;BME280;66726;52.388;9.986;2023-07-24T10:36:03;99624.47;;;21.05;75.28
77583;BME280;66726;52.388;9.986;2023-07-24T10:38:39;99632.38;;;21.07;75.47
77583;BME280;66726;52.388;9.986;2023-07-24T10:41:13;99630.97;;;21.04;73.51
77583;BME280;66726;52.388;9.986;2023-07-24T10:43:47;99623.66;;;21.27;74.08
77583;BME280;66726;52.388;9.986;2023-07-24T10:46:20;99612.94;;;21.47;75.72
77583;BME280;66726;52.388;9.986;2023-07-24T10:48:53;99619.31;;;21.57;74.03
77583;BME280;66726;52.388;9.986;2023-07-24T10:51:25;99610.56;;;21.55;74.00
77583;BME280;66726;52.388;9.986;2023-07-24T10:53:58;99609.44;;;21.51;72.37
77583;BME280;66726;52.388;9.986;2023-07-24T10:56:30;99606.16;;;21.49;73.02
77583;BME280;66726;52.388;9.986;2023-07-24T10:59:06;99595.28;;;21.54;72.95
77583;BME280;66726;52.388;9.986;2023-07-24T11:01:39;99594.22;;;21.55;72.42
77583;BME280;66726;52.388;9.986;2023-07-24T11:04:11;99599.06;;;21.48;69.77
77583;BME280;66726;52.388;9.986;2023-07-24T11:06:43;99605.38;;;21.54;71.61
77583;BME280;66726;52.388;9.986;2023-07-24T11:09:17;99599.72;;;21.60;67.96
77583;BME280;66726;52.388;9.986;2023-07-24T11:11:49;99606.53;;;21.63;69.58
77583;BME280;66726;52.388;9.986;2023-07-24T11:14:23;99598.63;;;21.61;67.60
77583;BME280;66726;52.388;9.986;2023-07-24T11:16:54;99606.00;;;21.61;66.79
77583;BME280;66726;52.388;9.986;2023-07-24T11:19:26;99608.41;;;21.57;66.72
77583;BME280;66726;52.388;9.986;2023-07-24T11:21:58;99598.59;;;21.56;67.22
77583;BME280;66726;52.388;9.986;2023-07-24T11:24:42;99607.84;;;21.55;66.07
77583;BME280;66726;52.388;9.986;2023-07-24T11:27:17;99603.59;;;21.69;67.49
77583;BME280;66726;52.388;9.986;2023-07-24T11:29:51;99587.88;;;21.82;65.88
77583;BME280;66726;52.388;9.986;2023-07-24T11:32:25;99580.91;;;21.91;66.57
77583;BME280;66726;52.388;9.986;2023-07-24T11:34:58;99588.03;;;21.97;67.07
77583;BME280;66726;52.388;9.986;2023-07-24T11:37:33;99584.25;;;22.03;64.06
77583;BME280;66726;52.388;9.986;2023-07-24T11:40:09;99588.56;;;21.99;64.56
77583;BME280;66726;52.388;9.986;2023-07-24T11:42:47;99589.16;;;22.01;65.96
77583;BME280;66726;52.388;9.986;2023-07-24T11:45:19;99589.63;;;21.93;65.18
77583;BME280;66726;52.388;9.986;2023-07-24T11:47:52;99594.03;;;21.99;65.77
77583;BME280;66726;52.388;9.986;2023-07-24T11:50:24;99589.94;;;21.96;65.48
77583;BME280;66726;52.388;9.986;2023-07-24T11:52:56;99585.59;;;22.00;64.40
77583;BME280;66726;52.388;9.986;2023-07-24T11:55:35;99582.63;;;22.02;65.56
77583;BME280;66726;52.388;9.986;2023-07-24T11:58:07;99583.13;;;21.99;65.23
77583;BME280;66726;52.388;9.986;2023-07-24T12:00:39;99588.09;;;22.02;65.34
77583;BME280;66726;52.388;9.986;2023-07-24T12:03:11;99606.59;;;22.00;65.42
77583;BME280;66726;52.388;9.986;2023-07-24T12:05:44;99610.50;;;21.82;67.00
77583;BME280;66726;52.388;9.986;2023-07-24T12:08:30;99614.16;;;21.61;69.64
77583;BME280;66726;52.388;9.986;2023-07-24T12:11:05;99611.03;;;21.47;71.95
77583;BME280;66726;52.388;9.986;2023-07-24T12:13:47;99596.81;;;21.40;73.33
77583;BME280;66726;52.388;9.986;2023-07-24T12:16:21;99606.28;;;21.33;73.91
77583;BME280;66726;52.388;9.986;2023-07-24T12:18:53;99599.38;;;21.25;74.94
77583;BME280;66726;52.388;9.986;2023-07-24T12:21:24;99597.81;;;21.29;75.18
77583;BME280;66726;52.388;9.986;2023-07-24T12:23:56;99585.31;;;21.33;74.84
77583;BME280;66726;52.388;9.986;2023-07-24T12:26:30;99587.47;;;21.31;75.45
77583;BME280;66726;52.388;9.986;2023-07-24T12:29:02;99585.22;;;21.23;74.80
77583;BME280;66726;52.388;9.986;2023-07-24T12:31:34;99572.78;;;21.32;74.89
77583;BME280;66726;52.388;9.986;2023-07-24T12:34:06;99585.88;;;21.35;74.47
77583;BME280;66726;52.388;9.986;2023-07-24T12:36:38;99576.03;;;21.29;74.13
77583;BME280;66726;52.388;9.986;2023-07-24T12:39:10;99574.94;;;21.30;74.88
77583;BME280;66726;52.388;9.986;2023-07-24T12:41:43;99574.34;;;21.23;75.75
77583;BME280;66726;52.388;9.986;2023-07-24T12:44:15;99583.38;;;21.29;75.81
77583;BME280;66726;52.388;9.986;2023-07-24T12:46:47;99583.13;;;21.30;75.91
77583;BME280;66726;52.388;9.986;2023-07-24T12:49:19;99585.84;;;21.30;76.85
77583;BME280;66726;52.388;9.986;2023-07-24T12:51:51;99590.09;;;21.21;77.75
77583;BME280;66726;52.388;9.986;2023-07-24T12:54:23;99598.72;;;21.13;79.10
77583;BME280;66726;52.388;9.986;2023-07-24T12:57:16;99600.22;;;21.04;80.20
77583;BME280;66726;52.388;9.986;2023-07-24T12:59:48;99593.81;;;20.66;76.92
77583;BME280;66726;52.388;9.986;2023-07-24T13:02:20;99589.94;;;20.84;77.37
77583;BME280;66726;52.388;9.986;2023-07-24T13:04:52;99587.09;;;20.74;77.43
77583;BME280;66726;52.388;9.986;2023-07-24T13:07:24;99592.16;;;20.65;78.29
77583;BME280;66726;52.388;9.986;2023-07-24T13:09:56;99571.50;;;20.64;79.15
77583;BME280;66726;52.388;9.986;2023-07-24T13:12:29;99565.97;;;20.59;79.05
77583;BME280;66726;52.388;9.986;2023-07-24T13:15:01;99557.78;;;20.54;79.02
77583;BME280;66726;52.388;9.986;2023-07-24T13:17:33;99555.72;;;20.66;79.13
77583;BME280;66726;52.388;9.986;2023-07-24T13:20:09;99553.31;;;20.70;78.83
77583;BME280;66726;52.388;9.986;2023-07-24T13:22:41;99552.06;;;20.78;79.64
77583;BME280;66726;52.388;9.986;2023-07-24T13:25:13;99548.28;;;20.79;80.40
77583;BME280;66726;52.388;9.986;2023-07-24T13:27:46;99547.28;;;20.90;80.46
77583;BME280;66726;52.388;9.986;2023-07-24T13:30:18;99544.09;;;20.98;81.33